McFarland, CA (93250)

12:55 AM PST on January 19, 2017 (GMT -0800)
McFarland | | Change Station
Active Advisory: Gale Warning Active Notice: Public Information Statement

Elev 342 ft 35.69 °N, 119.23 °W | Updated 38 seconds ago

Rain
Rain
47.1 °F
Feels Like 47 °F
N
1.7
Wind Variable Wind from WNW

Today
High -- | Low -- °F
--% Chance of Precip.
Yesterday
High -- | Low -- °F
Precip. -- in
Pressure 29.89 in
Visibility 8.0 miles
Clouds Overcast 7000 ft
Windchill 47 °F
Dew Point 45 °F
Humidity 92%
Rainfall 0.02 in
Snow Depth Not available.
7:04 AM 5:11 PM
Waning Gibbous, 55% visible
METAR KBFL 190754Z AUTO 32006KT 8SM -RA OVC070 09/07 A2989 RMK AO2 RAB51 SLP122 P0000 T00890072 401280028
Pressure 29.89 in
Visibility 8.0 miles
Clouds Overcast 7000 ft
Windchill 47 °F
Dew Point 45 °F
Humidity 92%
Rainfall 0.02 in
Snow Depth Not available.
7:04 AM 5:11 PM
Waning Gibbous, 55% visible
METAR KBFL 190754Z AUTO 32006KT 8SM -RA OVC070 09/07 A2989 RMK AO2 RAB51 SLP122 P0000 T00890072 401280028

Get Your Daily Forecast Email!

Thanks for signing up!

Be on the lookout for a verification email in your inbox.

You'll start receiving the daily forecast at 8 AM.

×

10-Day Weather Forecast

Almanac

Astronomy

Jan. 19, 2017 Rise Set
Actual Time
Civil Twilight
Nautical Twilight
Astronomical Twilight
Moon
Length of Visible Light
Length of Day
Tomorrow will be .
, % of the Moon is Illuminated

Today's Extremes

State Highs State Lows

Community

WunderPhotos

Upload Photos

1,962,540 photos uploaded!

WunderBlog® & News

Nearby

Air Quality

  Air Quality AQ Index Pollutant
Not available.

Snow Depth

Station Depth Elevation

Earthquake Activity

City Distance Mag. Time & Date
Minimum magnitude displayed is 2.5.

Coastal Water Temperatures

Place Temperature

Stations

Nearby Weather Stations

Station Location Temp. Windchill Dew Point Humidity Wind Precip. Elev Updated Type
                   

Watches & Warnings

Gale Warning
Issued: 9:06 PM PST Jan. 18, 2017 – National Weather Service

... Gale Warning remains in effect until 3 am PST Thursday...

* winds... south winds 20 to 30 kt with gusts up to 40 kt will
continue through early Thursday morning.

* Seas... combined seas of 9 to 12 feet with periods around 13
seconds are expected when waves are largest.


Precautionary/preparedness actions...

A Gale Warning means winds of 34 to 47 knots are imminent or
occuring. Operating a vessel in gale conditions requires
experience and properly equipped vessels. It is highly
recommended that mariners without the proper experience seek safe
Harbor prior to the onset of gale conditions.